Greenview, California
Current Conditions -  °F | °C
As of 9:53 AM on Saturday 20 Dec 2014 (Local Time) from KSIY Reporting Station
Overcast Overcast  
Wind Chill: 41°   Ceiling: 8500
Heat Index: 48°   Visibility: 10mi
Dew Point: 38°   Wind: 20mph
Humidity: 68%   Direction: 170°S
Pressure: 29.99"   Gusts: 30mph
Location:  41.55°N, 122.9°W
Report Text: KSIY 201753Z AUTO 17017G26KT 10SM OVC085 09/03 A2999 RMK AO2 PK WND 17026/1744 SLP167 T00890033 10089 20056 53000
Loading
Personal Weather Stations






























Interactive Weather Map New forecast layout! Learn more

10-Day Weather Forecast

Advertisements
Track Severe Weather on mobile